Time;durP1;ratioP1;P1;durP2;ratioP2;P2;SDS_P1;SDS_P2;PMS_P1;PMS_P2;Temp;Humidity;BMP_temperature;BMP_pressure;BME280_temperature;BME280_humidity;BME280_pressure;Samples;Min_cycle;Max_cycle;Signal;HPM_P1;HPM_P2
2024/01/21 00:01:23;;;;;;;0.80;0.40;;;0.70;32.60;;;;;;5093318;28;20241;-51
2024/01/21 00:03:49;;;;;;;0.82;0.55;;;0.80;32.60;;;;;;5093185;28;20172;-45
2024/01/21 00:06:15;;;;;;;1.67;1.23;;;0.80;32.70;;;;;;5093374;28;20702;-43
2024/01/21 00:08:41;;;;;;;0.80;0.20;;;0.80;32.40;;;;;;5093301;28;20500;-48
2024/01/21 00:11:07;;;;;;;1.43;1.33;;;0.80;32.40;;;;;;5092981;28;20239;-46
2024/01/21 00:13:33;;;;;;;0.80;0.40;;;0.80;32.60;;;;;;5093216;28;20654;-50
2024/01/21 00:15:59;;;;;;;0.70;0.30;;;0.80;32.60;;;;;;5093071;28;20173;-48
2024/01/21 00:18:25;;;;;;;1.60;0.73;;;0.80;32.60;;;;;;5092902;28;20176;-44
2024/01/21 00:20:51;;;;;;;1.10;1.00;;;0.80;32.60;;;;;;5093021;28;20196;-47
2024/01/21 00:23:17;;;;;;;1.37;1.27;;;0.80;32.60;;;;;;5092663;28;20677;-49
2024/01/21 00:25:42;;;;;;;2.77;2.43;;;0.80;32.70;;;;;;5093031;28;20403;-48
2024/01/21 00:28:08;;;;;;;0.80;0.37;;;0.80;32.50;;;;;;5092947;28;20471;-43
2024/01/21 00:30:34;;;;;;;0.70;0.20;;;0.80;32.50;;;;;;5092584;28;20196;-44
2024/01/21 00:33:00;;;;;;;0.80;0.60;;;0.70;32.70;;;;;;5092701;28;20736;-47
2024/01/21 00:35:26;;;;;;;2.00;1.80;;;0.70;32.70;;;;;;5092865;28;20172;-44
2024/01/21 00:37:51;;;;;;;0.90;0.70;;;0.70;32.70;;;;;;5092690;28;20403;-44
2024/01/21 00:40:17;;;;;;;1.00;0.80;;;0.70;32.70;;;;;;5092415;28;20180;-47
2024/01/21 00:42:43;;;;;;;1.13;0.83;;;0.70;32.60;;;;;;5092857;28;20199;-45
2024/01/21 00:45:09;;;;;;;0.80;0.30;;;0.70;32.70;;;;;;5092540;28;20177;-47
2024/01/21 00:47:35;;;;;;;0.90;0.45;;;0.70;32.60;;;;;;5092370;28;20498;-50
2024/01/21 00:50:00;;;;;;;0.90;0.57;;;0.70;32.70;;;;;;5092480;28;20291;-43
2024/01/21 00:52:26;;;;;;;3.43;2.00;;;0.70;32.70;;;;;;5092200;28;20497;-48
2024/01/21 00:54:55;;;;;;;1.20;0.87;;;0.60;32.90;;;;;;5092461;28;20650;-48
2024/01/21 00:57:20;;;;;;;2.00;1.90;;;0.60;32.70;;;;;;5092436;28;20251;-45
2024/01/21 00:59:46;;;;;;;0.80;0.43;;;0.60;32.90;;;;;;5092388;28;20605;-47
2024/01/21 01:02:13;;;;;;;0.80;0.50;;;0.60;33.00;;;;;;5092024;28;20433;-49
2024/01/21 01:04:39;;;;;;;1.42;1.30;;;0.50;32.90;;;;;;5092225;28;20410;-45
2024/01/21 01:07:05;;;;;;;0.80;0.30;;;0.50;32.70;;;;;;5092337;28;20576;-43
2024/01/21 01:09:30;;;;;;;5.93;2.17;;;0.40;32.70;;;;;;5092200;28;20204;-49
2024/01/21 01:11:56;;;;;;;0.80;0.20;;;0.40;32.90;;;;;;5091984;28;20469;-47
2024/01/21 01:14:22;;;;;;;0.77;0.30;;;0.40;32.70;;;;;;5092262;28;20207;-43
2024/01/21 01:16:48;;;;;;;1.33;1.23;;;0.30;32.60;;;;;;5092115;28;20208;-47
2024/01/21 01:19:13;;;;;;;1.30;1.17;;;0.30;32.60;;;;;;5092310;28;20640;-43
2024/01/21 01:21:39;;;;;;;1.10;0.87;;;0.20;32.50;;;;;;5090716;28;20653;-48
2024/01/21 01:24:05;;;;;;;1.90;1.80;;;0.10;32.60;;;;;;5092257;28;20176;-48
2024/01/21 01:26:31;;;;;;;0.80;0.55;;;0.10;32.60;;;;;;5094469;28;20172;-49
2024/01/21 01:28:58;;;;;;;0.80;0.40;;;0.00;32.60;;;;;;5094040;28;20245;-43
2024/01/21 01:31:23;;;;;;;0.70;0.20;;;-0.10;32.50;;;;;;5091557;28;20203;-45
2024/01/21 01:33:49;;;;;;;1.33;1.10;;;-0.20;32.40;;;;;;5085573;28;20578;-45
2024/01/21 01:36:15;;;;;;;0.70;0.27;;;-0.20;32.30;;;;;;5076010;28;20177;-46
2024/01/21 01:38:40;;;;;;;0.90;0.63;;;-0.30;32.40;;;;;;5077423;28;20181;-44
2024/01/21 01:41:06;;;;;;;2.20;1.70;;;-0.40;32.50;;;;;;5078149;28;20223;-45
2024/01/21 01:43:32;;;;;;;0.80;0.30;;;-0.50;32.50;;;;;;5076746;28;20175;-51
2024/01/21 01:46:01;;;;;;;1.23;1.13;;;-0.60;32.40;;;;;;5075529;28;20415;-49
2024/01/21 01:48:28;;;;;;;0.80;0.30;;;-0.60;32.60;;;;;;5075837;28;20371;-43
2024/01/21 01:50:56;;;;;;;0.95;0.85;;;-0.60;32.70;;;;;;5076320;28;20193;-47
2024/01/21 01:53:23;;;;;;;0.70;0.30;;;-0.70;32.70;;;;;;5090780;28;20203;-45
2024/01/21 01:55:49;;;;;;;0.93;0.40;;;-0.70;32.70;;;;;;5075530;28;20177;-43
2024/01/21 01:58:16;;;;;;;2.33;1.08;;;-0.80;32.50;;;;;;5087769;28;20176;-47
2024/01/21 02:00:42;;;;;;;0.80;0.50;;;-0.80;32.50;;;;;;5079072;28;20201;-45
2024/01/21 02:03:12;;;;;;;0.70;0.45;;;-0.90;32.70;;;;;;5075222;28;20188;-43
2024/01/21 02:05:37;;;;;;;1.08;0.98;;;-0.90;32.60;;;;;;5075161;28;20209;-48
2024/01/21 02:08:03;;;;;;;0.80;0.30;;;-0.90;32.70;;;;;;5075045;28;20209;-44
2024/01/21 02:10:30;;;;;;;1.42;1.30;;;-1.00;32.60;;;;;;5074775;28;20686;-43
2024/01/21 02:12:56;;;;;;;1.58;1.48;;;-1.00;32.60;;;;;;5074831;28;20260;-51
2024/01/21 02:15:22;;;;;;;0.90;0.70;;;-1.00;32.80;;;;;;5074975;28;20165;-47
2024/01/21 02:17:48;;;;;;;1.00;0.90;;;-1.10;32.60;;;;;;5074902;28;20185;-46
2024/01/21 02:20:14;;;;;;;0.77;0.27;;;-1.10;32.60;;;;;;5074882;28;20468;-42
2024/01/21 02:22:40;;;;;;;0.80;0.30;;;-1.20;32.60;;;;;;5082415;28;20412;-46
2024/01/21 02:25:07;;;;;;;1.03;0.90;;;-1.20;32.70;;;;;;5083960;28;20181;-44
2024/01/21 02:27:33;;;;;;;0.75;0.20;;;-1.20;32.90;;;;;;5074886;28;20415;-44
2024/01/21 02:29:59;;;;;;;1.50;0.73;;;-1.20;32.90;;;;;;5074833;28;20567;-48
2024/01/21 02:32:26;;;;;;;1.00;0.60;;;-1.30;32.90;;;;;;5075251;28;20185;-49
2024/01/21 02:34:52;;;;;;;0.82;0.50;;;-1.30;32.70;;;;;;5075374;28;20169;-43
2024/01/21 02:37:18;;;;;;;0.80;0.57;;;-1.30;32.70;;;;;;5075144;28;20775;-45
2024/01/21 02:39:44;;;;;;;0.80;0.30;;;-1.40;32.70;;;;;;5074364;28;20173;-46
2024/01/21 02:42:11;;;;;;;1.23;1.13;;;-1.40;32.80;;;;;;5074215;28;20201;-44
2024/01/21 02:44:37;;;;;;;1.00;0.60;;;-1.40;33.00;;;;;;5074596;28;21014;-42
2024/01/21 02:47:03;;;;;;;1.75;1.65;;;-1.30;32.90;;;;;;5074445;28;20739;-47
2024/01/21 02:49:28;;;;;;;0.80;0.40;;;-1.30;32.90;;;;;;5074398;28;20195;-48
2024/01/21 02:51:58;;;;;;;0.90;0.63;;;-1.40;32.50;;;;;;5074147;28;20197;-45
2024/01/21 02:54:25;;;;;;;0.90;0.80;;;-1.40;32.60;;;;;;5074411;28;20881;-48
2024/01/21 02:56:51;;;;;;;0.70;0.20;;;-1.50;32.70;;;;;;5074161;28;20179;-43
2024/01/21 02:59:16;;;;;;;1.42;1.00;;;-1.60;32.50;;;;;;5074320;28;20523;-41
2024/01/21 03:01:42;;;;;;;0.80;0.47;;;-1.60;32.60;;;;;;5081793;28;20203;-48
2024/01/21 03:04:12;;;;;;;0.90;0.53;;;-1.60;32.70;;;;;;5083261;28;20419;-43
2024/01/21 03:06:38;;;;;;;1.10;0.90;;;-1.70;33.00;;;;;;5074062;28;20173;-48
2024/01/21 03:09:04;;;;;;;1.02;0.77;;;-1.70;33.10;;;;;;5073943;28;20674;-46
2024/01/21 03:11:32;;;;;;;0.70;0.25;;;-1.70;33.00;;;;;;5073737;28;20207;-45
2024/01/21 03:13:58;;;;;;;2.90;0.75;;;-1.70;33.10;;;;;;5075286;28;20646;-46
2024/01/21 03:16:24;;;;;;;1.17;1.07;;;-1.70;33.10;;;;;;5089126;28;20223;-47
2024/01/21 03:18:49;;;;;;;0.80;0.60;;;-1.70;33.10;;;;;;5074184;28;20783;-49
2024/01/21 03:21:15;;;;;;;1.40;1.10;;;-1.60;33.30;;;;;;5089973;28;20201;-44
2024/01/21 03:23:41;;;;;;;0.70;0.30;;;-1.60;33.10;;;;;;5072568;28;20173;-47
2024/01/21 03:26:07;;;;;;;2.40;2.20;;;-1.60;33.10;;;;;;5073710;28;20207;-43
2024/01/21 03:28:32;;;;;;;1.73;0.97;;;-1.60;33.40;;;;;;5073668;28;20179;-43
2024/01/21 03:30:58;;;;;;;9.40;2.57;;;-1.50;33.80;;;;;;5073446;28;20580;-48
2024/01/21 03:33:25;;;;;;;1.30;0.70;;;-1.50;33.60;;;;;;5073525;28;20226;-46
2024/01/21 03:35:51;;;;;;;0.90;0.60;;;-1.40;33.70;;;;;;5082292;28;20570;-44
2024/01/21 03:38:17;;;;;;;0.73;0.30;;;-1.40;33.50;;;;;;5093767;28;20173;-47
2024/01/21 03:40:43;;;;;;;0.80;0.33;;;-1.40;33.40;;;;;;5077306;28;20216;-43
2024/01/21 03:43:09;;;;;;;1.27;0.93;;;-1.40;33.30;;;;;;5073367;28;20933;-47
2024/01/21 03:45:35;;;;;;;1.13;1.00;;;-1.30;33.50;;;;;;5073345;28;20177;-45
2024/01/21 03:48:01;;;;;;;0.80;0.57;;;-1.30;33.40;;;;;;5073308;28;20674;-44
2024/01/21 03:50:26;;;;;;;1.70;0.90;;;-1.30;33.30;;;;;;5073023;28;20455;-47
2024/01/21 03:52:52;;;;;;;1.07;0.97;;;-1.30;33.20;;;;;;5073198;28;20411;-45
2024/01/21 03:55:20;;;;;;;1.27;0.93;;;-1.30;33.30;;;;;;5073122;28;20180;-46
2024/01/21 03:57:46;;;;;;;1.85;1.75;;;-1.30;33.20;;;;;;5072618;28;20205;-51
2024/01/21 04:00:12;;;;;;;0.70;0.27;;;-1.40;33.10;;;;;;5072685;28;20644;-44
2024/01/21 04:02:38;;;;;;;0.73;0.30;;;-1.40;33.00;;;;;;5073246;28;20169;-45
2024/01/21 04:05:05;;;;;;;1.00;0.77;;;-1.40;33.20;;;;;;5072949;28;20204;-48
2024/01/21 04:07:31;;;;;;;1.25;1.15;;;-1.50;33.00;;;;;;5072826;28;20195;-43
2024/01/21 04:09:57;;;;;;;1.15;0.93;;;-1.50;33.20;;;;;;5072795;28;20197;-46
2024/01/21 04:12:23;;;;;;;2.40;1.37;;;-1.60;32.90;;;;;;5085885;28;20184;-46
2024/01/21 04:14:49;;;;;;;1.07;0.70;;;-1.70;32.90;;;;;;5076071;28;20743;-46
2024/01/21 04:17:15;;;;;;;2.00;1.80;;;-1.70;33.00;;;;;;5072693;28;20453;-46
2024/01/21 04:19:40;;;;;;;2.00;1.80;;;-1.70;33.00;;;;;;5071401;28;20211;-47
2024/01/21 04:22:06;;;;;;;0.80;0.43;;;-1.70;33.00;;;;;;5072228;28;20205;-43
2024/01/21 04:24:32;;;;;;;0.70;0.30;;;-1.80;33.10;;;;;;5072599;28;20175;-45
2024/01/21 04:26:57;;;;;;;0.80;0.60;;;-1.80;33.00;;;;;;5076107;28;20531;-47
2024/01/21 04:29:23;;;;;;;0.70;0.20;;;-1.80;33.10;;;;;;5091027;28;20193;-47
2024/01/21 04:31:49;;;;;;;0.70;0.30;;;-1.90;33.10;;;;;;5083246;28;20189;-47
2024/01/21 04:34:15;;;;;;;0.80;0.40;;;-1.90;33.00;;;;;;5073457;28;20227;-44
2024/01/21 04:36:40;;;;;;;0.70;0.30;;;-2.00;32.80;;;;;;5076211;28;20781;-44
2024/01/21 04:39:07;;;;;;;0.83;0.60;;;-2.00;33.00;;;;;;5091136;28;20804;-48
2024/01/21 04:41:33;;;;;;;1.10;0.65;;;-2.10;33.10;;;;;;5072210;28;20552;-48
2024/01/21 04:43:58;;;;;;;0.70;0.30;;;-2.10;33.90;;;;;;5076233;28;20191;-44
2024/01/21 04:46:24;;;;;;;0.70;0.30;;;-2.10;33.10;;;;;;5075552;28;20801;-42
2024/01/21 04:48:50;;;;;;;0.77;0.30;;;-2.10;33.30;;;;;;5071958;28;20204;-46
2024/01/21 04:51:16;;;;;;;2.80;1.70;;;-2.10;33.30;;;;;;5071922;28;20189;-47
2024/01/21 04:53:43;;;;;;;3.17;0.68;;;-2.10;33.30;;;;;;5072170;28;20415;-45
2024/01/21 04:56:18;;;;;;;2.17;0.68;;;-2.10;33.30;;;;;;5088951;28;20172;-48
2024/01/21 04:58:44;;;;;;;0.80;0.40;;;-2.10;33.40;;;;;;5088189;28;20203;-44
2024/01/21 05:01:11;;;;;;;0.80;0.50;;;-2.10;33.20;;;;;;5072297;28;20255;-46
2024/01/21 05:03:36;;;;;;;0.70;0.40;;;-2.20;33.30;;;;;;5072285;28;20165;-46
2024/01/21 05:06:03;;;;;;;0.80;0.47;;;-2.20;33.20;;;;;;5088721;28;20176;-43
2024/01/21 05:08:29;;;;;;;1.95;1.85;;;-2.20;33.10;;;;;;5071999;28;20165;-45
2024/01/21 05:10:55;;;;;;;1.53;0.83;;;-2.30;33.10;;;;;;5070848;28;20701;-47
2024/01/21 05:13:21;;;;;;;0.93;0.83;;;-2.30;33.10;;;;;;5076308;28;20569;-45
2024/01/21 05:15:46;;;;;;;0.70;0.30;;;-2.30;33.10;;;;;;5084307;28;20207;-44
2024/01/21 05:18:12;;;;;;;0.70;0.27;;;-2.40;33.00;;;;;;5071858;28;20169;-45
2024/01/21 05:20:38;;;;;;;1.27;0.97;;;-2.40;33.10;;;;;;5071751;28;20608;-48
2024/01/21 05:23:04;;;;;;;0.70;0.30;;;-2.40;33.00;;;;;;5070556;28;20427;-43
2024/01/21 05:25:29;;;;;;;1.10;0.87;;;-2.40;33.10;;;;;;5072132;28;20173;-45
2024/01/21 05:27:56;;;;;;;2.33;2.13;;;-2.40;33.20;;;;;;5088438;28;20168;-43
2024/01/21 05:30:22;;;;;;;1.23;1.05;;;-2.40;33.20;;;;;;5071465;28;20208;-47
2024/01/21 05:32:51;;;;;;;0.70;0.20;;;-2.20;33.30;;;;;;5071855;28;20673;-44
2024/01/21 05:35:18;;;;;;;1.38;1.27;;;-2.40;33.10;;;;;;5083880;28;20225;-45
2024/01/21 05:37:44;;;;;;;1.17;0.80;;;-2.40;33.20;;;;;;5092083;28;20169;-44
2024/01/21 05:40:10;;;;;;;1.13;1.03;;;-2.40;33.20;;;;;;5091634;28;20197;-43
2024/01/21 05:42:36;;;;;;;0.80;0.30;;;-2.40;33.20;;;;;;5091697;28;20414;-44
2024/01/21 05:45:03;;;;;;;0.70;0.20;;;-2.50;33.20;;;;;;5091591;28;20182;-48
2024/01/21 05:47:28;;;;;;;0.93;0.70;;;-2.50;33.40;;;;;;5091747;28;20176;-43
2024/01/21 05:49:54;;;;;;;2.40;2.20;;;-2.50;33.40;;;;;;5091983;28;20204;-44
2024/01/21 05:52:20;;;;;;;2.10;0.87;;;-2.50;33.40;;;;;;5091750;28;20692;-47
2024/01/21 05:54:45;;;;;;;2.97;1.20;;;-2.50;33.40;;;;;;5091855;28;20176;-49
2024/01/21 05:57:11;;;;;;;1.53;1.07;;;-2.60;33.10;;;;;;5091706;28;20263;-44
2024/01/21 05:59:37;;;;;;;0.70;0.20;;;-2.60;33.10;;;;;;5091829;28;20215;-47
2024/01/21 06:02:07;;;;;;;1.80;1.00;;;-2.70;33.20;;;;;;5091379;28;20521;-48
2024/01/21 06:04:33;;;;;;;0.80;0.40;;;-2.60;33.20;;;;;;5086009;28;20173;-45
2024/01/21 06:06:59;;;;;;;1.08;0.70;;;-2.70;33.10;;;;;;5071847;28;20703;-42
2024/01/21 06:09:25;;;;;;;1.13;0.77;;;-2.70;33.10;;;;;;5072630;28;20228;-46
2024/01/21 06:11:51;;;;;;;1.58;1.25;;;-2.70;33.10;;;;;;5072744;28;20201;-48
2024/01/21 06:14:16;;;;;;;1.47;0.90;;;-2.70;33.10;;;;;;5072693;28;20587;-44
2024/01/21 06:16:42;;;;;;;1.77;1.20;;;-2.80;33.20;;;;;;5071304;28;20686;-47
2024/01/21 06:19:08;;;;;;;0.80;0.47;;;-2.80;33.10;;;;;;5070288;28;20415;-45
2024/01/21 06:21:40;;;;;;;2.20;2.03;;;-2.80;33.20;;;;;;5072708;28;20435;-45
2024/01/21 06:24:05;;;;;;;0.70;0.30;;;-2.80;33.20;;;;;;5073969;28;20916;-47
2024/01/21 06:26:31;;;;;;;2.80;2.60;;;-2.90;33.20;;;;;;5075072;28;20256;-43
2024/01/21 06:28:57;;;;;;;0.70;0.33;;;-3.00;33.30;;;;;;5074814;28;20461;-42
2024/01/21 06:31:23;;;;;;;1.20;0.63;;;-3.00;33.40;;;;;;5074680;28;20569;-49
2024/01/21 06:33:49;;;;;;;1.57;0.93;;;-3.00;33.50;;;;;;5074821;28;20193;-45
2024/01/21 06:36:14;;;;;;;0.77;0.30;;;-2.90;33.50;;;;;;5091678;28;20665;-46
2024/01/21 06:38:40;;;;;;;1.40;1.30;;;-2.90;33.30;;;;;;5074944;28;20522;-44
2024/01/21 06:41:06;;;;;;;0.77;0.40;;;-2.90;33.10;;;;;;5074160;28;20239;-50
2024/01/21 06:43:32;;;;;;;0.80;0.40;;;-2.90;33.10;;;;;;5074587;28;20428;-48
2024/01/21 06:45:58;;;;;;;2.00;1.73;;;-2.90;33.10;;;;;;5074792;28;20464;-44
2024/01/21 06:48:23;;;;;;;0.83;0.57;;;-2.90;33.10;;;;;;5074601;28;20399;-44
2024/01/21 06:50:51;;;;;;;0.80;0.40;;;-2.90;32.90;;;;;;5090593;28;20196;-50
2024/01/21 06:53:16;;;;;;;0.70;0.30;;;-2.90;33.10;;;;;;5094610;28;20685;-44
2024/01/21 06:55:45;;;;;;;0.80;0.40;;;-2.90;33.10;;;;;;5094712;28;20192;-42
2024/01/21 06:58:12;;;;;;;0.70;0.30;;;-2.90;33.10;;;;;;5094672;28;20470;-48
2024/01/21 07:00:37;;;;;;;0.70;0.30;;;-2.80;33.10;;;;;;5094064;28;20610;-44
2024/01/21 07:03:04;;;;;;;0.70;0.38;;;-2.80;33.20;;;;;;5094488;28;20211;-48
2024/01/21 07:05:29;;;;;;;2.17;2.00;;;-2.80;33.20;;;;;;5089492;28;20647;-44
2024/01/21 07:07:56;;;;;;;0.70;0.30;;;-2.90;33.20;;;;;;5074240;28;20223;-47
2024/01/21 07:10:23;;;;;;;1.10;1.00;;;-2.90;33.00;;;;;;5073960;28;20869;-42
2024/01/21 07:12:49;;;;;;;0.80;0.40;;;-2.90;33.00;;;;;;5074065;28;20197;-49
2024/01/21 07:15:15;;;;;;;0.80;0.40;;;-3.00;33.00;;;;;;5074276;28;20169;-49
2024/01/21 07:17:41;;;;;;;1.00;0.70;;;-2.90;33.20;;;;;;5089364;28;20695;-44
2024/01/21 07:20:10;;;;;;;2.03;1.60;;;-2.90;33.40;;;;;;5075230;28;20498;-44
2024/01/21 07:22:36;;;;;;;1.02;0.68;;;-2.80;33.60;;;;;;5073650;28;20200;-48
2024/01/21 07:25:02;;;;;;;0.70;0.30;;;-2.70;33.60;;;;;;5074060;28;20651;-44
2024/01/21 07:27:28;;;;;;;0.80;0.50;;;-2.60;33.40;;;;;;5073773;28;20189;-42
2024/01/21 07:29:53;;;;;;;1.77;1.47;;;-2.60;33.30;;;;;;5082174;28;20454;-51
2024/01/21 07:32:19;;;;;;;3.80;3.10;;;-2.50;33.40;;;;;;5080853;28;20551;-51
2024/01/21 07:34:45;;;;;;;0.70;0.27;;;-2.50;33.60;;;;;;5080915;28;20168;-43
2024/01/21 07:37:11;;;;;;;0.70;0.20;;;-2.30;33.50;;;;;;5082888;28;20184;-43
2024/01/21 07:39:37;;;;;;;1.55;1.10;;;-2.00;33.50;;;;;;5073835;28;20250;-43
2024/01/21 07:42:03;;;;;;;0.70;0.20;;;-1.70;33.50;;;;;;5073018;28;20266;-47
2024/01/21 07:44:29;;;;;;;0.70;0.22;;;-1.50;33.10;;;;;;5073646;28;20420;-46
2024/01/21 07:46:54;;;;;;;0.70;0.30;;;-1.40;32.80;;;;;;5073662;28;20185;-44
2024/01/21 07:49:20;;;;;;;1.00;0.90;;;-1.30;32.60;;;;;;5077045;28;20201;-43
2024/01/21 07:51:46;;;;;;;2.03;1.37;;;-1.30;32.60;;;;;;5075813;28;20428;-46
2024/01/21 07:54:12;;;;;;;1.90;1.80;;;-1.30;32.80;;;;;;5073354;28;20177;-48
2024/01/21 07:56:38;;;;;;;1.30;0.73;;;-1.30;32.90;;;;;;5075228;28;20404;-50
2024/01/21 07:59:03;;;;;;;1.57;0.73;;;-1.10;33.20;;;;;;5093029;28;20184;-44
2024/01/21 08:01:29;;;;;;;1.10;1.00;;;-1.00;33.30;;;;;;5075388;28;20211;-42
2024/01/21 08:03:55;;;;;;;0.80;0.40;;;-0.80;33.40;;;;;;5073821;28;20461;-47
2024/01/21 08:06:20;;;;;;;0.70;0.30;;;-0.70;33.30;;;;;;5075639;28;20173;-48
2024/01/21 08:08:47;;;;;;;1.77;0.97;;;-0.60;33.20;;;;;;5075942;28;20185;-43
2024/01/21 08:11:13;;;;;;;0.90;0.70;;;-0.40;33.30;;;;;;5072711;28;20247;-43
2024/01/21 08:13:38;;;;;;;0.70;0.30;;;-0.40;34.00;;;;;;5072701;28;20854;-44
2024/01/21 08:16:04;;;;;;;1.30;0.80;;;-0.30;33.40;;;;;;5073017;28;20218;-44
2024/01/21 08:18:30;;;;;;;0.80;0.40;;;-0.10;33.70;;;;;;5072915;28;20173;-45
2024/01/21 08:20:56;;;;;;;0.80;0.27;;;0.10;33.80;;;;;;5072345;28;20279;-48
2024/01/21 08:23:22;;;;;;;0.80;0.30;;;0.50;34.10;;;;;;5072802;28;20169;-44
2024/01/21 08:25:47;;;;;;;1.37;0.97;;;0.90;34.20;;;;;;5080233;28;20768;-42
2024/01/21 08:28:13;;;;;;;2.10;2.00;;;1.30;34.00;;;;;;5081603;28;20181;-44
2024/01/21 08:30:39;;;;;;;4.03;1.77;;;1.50;33.90;;;;;;5072133;28;20980;-48
2024/01/21 08:33:05;;;;;;;0.90;0.70;;;1.60;33.70;;;;;;5072417;28;20777;-45
2024/01/21 08:35:30;;;;;;;0.90;0.53;;;1.70;34.00;;;;;;5072434;28;20176;-46
2024/01/21 08:37:56;;;;;;;3.93;2.03;;;1.80;33.90;;;;;;5072641;28;20177;-47
2024/01/21 08:40:22;;;;;;;2.13;1.67;;;1.90;34.00;;;;;;5086716;28;20196;-47
2024/01/21 08:42:48;;;;;;;1.83;1.48;;;1.90;34.00;;;;;;5072361;28;20183;-43
2024/01/21 08:45:14;;;;;;;1.20;1.10;;;2.10;34.20;;;;;;5072125;28;20184;-49
2024/01/21 08:47:40;;;;;;;4.30;1.33;;;2.30;34.30;;;;;;5072230;28;20177;-49
2024/01/21 08:50:06;;;;;;;1.00;0.80;;;2.50;34.00;;;;;;5071990;28;20228;-44
2024/01/21 08:52:31;;;;;;;1.20;1.10;;;2.70;34.10;;;;;;5072013;28;20442;-47
2024/01/21 08:54:57;;;;;;;1.80;1.63;;;2.80;33.80;;;;;;5071926;28;20514;-44
2024/01/21 08:57:23;;;;;;;1.00;0.87;;;2.80;33.60;;;;;;5072083;28;20177;-45
2024/01/21 08:59:51;;;;;;;1.10;0.77;;;3.00;33.60;;;;;;5072052;28;20411;-47
2024/01/21 09:02:18;;;;;;;3.15;1.35;;;3.10;33.60;;;;;;5071704;28;20192;-44
2024/01/21 09:04:44;;;;;;;3.20;2.90;;;3.20;33.40;;;;;;5071913;28;20260;-47
2024/01/21 09:07:10;;;;;;;4.30;0.77;;;3.30;33.10;;;;;;5071822;28;20181;-46
2024/01/21 09:09:35;;;;;;;2.23;1.40;;;3.40;32.80;;;;;;5071771;28;20219;-42
2024/01/21 09:12:01;;;;;;;2.23;1.10;;;3.50;32.60;;;;;;5071446;28;20435;-44
2024/01/21 09:14:27;;;;;;;0.93;0.80;;;3.50;31.60;;;;;;5071876;28;20175;-48
2024/01/21 09:16:53;;;;;;;3.05;2.60;;;3.50;32.10;;;;;;5071867;28;20287;-48
2024/01/21 09:19:19;;;;;;;1.00;0.70;;;3.70;31.70;;;;;;5071750;28;20178;-44
2024/01/21 09:21:45;;;;;;;3.05;1.92;;;4.00;30.40;;;;;;5071547;28;20246;-44
2024/01/21 09:24:11;;;;;;;1.60;1.50;;;4.20;31.20;;;;;;5071656;28;20177;-47
2024/01/21 09:26:37;;;;;;;0.80;0.20;;;4.40;30.80;;;;;;5071922;28;20408;-43
2024/01/21 09:29:03;;;;;;;1.10;0.85;;;4.60;30.70;;;;;;5071804;28;20205;-45
2024/01/21 09:31:29;;;;;;;3.30;2.92;;;4.70;30.50;;;;;;5071516;28;20189;-47
2024/01/21 09:33:56;;;;;;;2.17;0.50;;;4.90;29.10;;;;;;5071508;28;20188;-45
2024/01/21 09:36:23;;;;;;;10.18;1.50;;;5.10;29.50;;;;;;5071837;28;20170;-45
2024/01/21 09:38:51;;;;;;;1.70;1.60;;;5.20;27.60;;;;;;5071583;28;20185;-46
2024/01/21 09:41:35;;;;;;;2.70;2.00;;;5.30;28.00;;;;;;5072842;28;20209;-47
2024/01/21 09:44:01;;;;;;;0.90;0.43;;;5.40;28.00;;;;;;5073786;28;20176;-41
2024/01/21 09:46:28;;;;;;;9.32;2.00;;;5.30;27.60;;;;;;5077768;28;20177;-49
2024/01/21 09:48:55;;;;;;;1.90;0.93;;;5.30;27.00;;;;;;5083629;28;20574;-50
2024/01/21 09:51:22;;;;;;;0.80;0.40;;;5.30;26.30;;;;;;5071176;28;20185;-44
2024/01/21 09:53:48;;;;;;;4.30;1.35;;;5.30;26.20;;;;;;5071669;28;20181;-46
2024/01/21 09:56:15;;;;;;;5.33;1.50;;;5.30;26.50;;;;;;5072535;28;20199;-48
2024/01/21 09:58:45;;;;;;;1.38;0.90;;;5.40;25.70;;;;;;5075462;28;20173;-44
2024/01/21 10:01:12;;;;;;;1.33;0.82;;;5.40;25.20;;;;;;5074897;28;20190;-45
2024/01/21 10:03:37;;;;;;;2.08;0.93;;;5.40;27.00;;;;;;5075215;28;20169;-46
2024/01/21 10:06:04;;;;;;;1.40;0.70;;;5.40;25.40;;;;;;5073914;28;20226;-43
2024/01/21 10:08:31;;;;;;;4.72;2.05;;;5.40;26.00;;;;;;5075514;28;20403;-44
2024/01/21 10:11:02;;;;;;;1.92;1.38;;;5.40;26.80;;;;;;5074728;28;20240;-48
2024/01/21 10:13:30;;;;;;;3.17;1.15;;;5.50;26.00;;;;;;5074996;28;20673;-43
2024/01/21 10:15:59;;;;;;;1.33;1.10;;;5.50;25.80;;;;;;5074965;28;20235;-41
2024/01/21 10:18:26;;;;;;;1.13;1.02;;;5.60;25.60;;;;;;5074858;28;20180;-44
2024/01/21 10:20:52;;;;;;;0.88;0.55;;;5.70;26.10;;;;;;5074603;28;20293;-46
2024/01/21 10:23:18;;;;;;;1.10;1.00;;;5.80;26.50;;;;;;5074830;28;20248;-47
2024/01/21 10:25:44;;;;;;;1.93;1.43;;;6.00;26.10;;;;;;5074981;28;20185;-48
2024/01/21 10:28:12;;;;;;;1.17;1.05;;;6.00;25.30;;;;;;5074844;28;20184;-43
2024/01/21 10:30:38;;;;;;;2.65;0.85;;;6.10;25.40;;;;;;5074447;28;20219;-48
2024/01/21 10:33:06;;;;;;;0.90;0.60;;;6.20;23.70;;;;;;5074548;28;20173;-49
2024/01/21 10:35:32;;;;;;;1.20;0.65;;;6.20;24.30;;;;;;5074946;28;20181;-43
2024/01/21 10:37:58;;;;;;;2.65;1.10;;;6.20;24.70;;;;;;5074620;28;20592;-43
2024/01/21 10:40:25;;;;;;;1.35;0.70;;;6.40;24.40;;;;;;5074356;28;20193;-49
2024/01/21 10:42:55;;;;;;;1.27;1.00;;;6.60;24.80;;;;;;5074558;28;20674;-49
2024/01/21 10:45:24;;;;;;;1.80;1.20;;;6.80;24.00;;;;;;5086457;28;20322;-48
2024/01/21 10:47:51;;;;;;;1.00;0.63;;;7.00;23.70;;;;;;5094687;28;20188;-46
2024/01/21 10:50:19;;;;;;;5.13;2.22;;;7.00;23.40;;;;;;5094167;28;20269;-45
2024/01/21 10:52:47;;;;;;;1.88;1.77;;;7.00;22.50;;;;;;5094673;28;20225;-44
2024/01/21 10:55:13;;;;;;;5.72;1.25;;;7.00;24.10;;;;;;5094431;28;20180;-51
2024/01/21 10:57:39;;;;;;;0.90;0.52;;;7.00;22.50;;;;;;5094762;28;20179;-50
2024/01/21 11:00:06;;;;;;;5.32;2.67;;;6.90;21.80;;;;;;5095121;28;20188;-45
2024/01/21 11:02:33;;;;;;;1.60;1.00;;;6.90;23.40;;;;;;5094137;28;20188;-46
2024/01/21 11:04:58;;;;;;;2.25;0.90;;;6.80;22.90;;;;;;5094455;28;20180;-48
2024/01/21 11:07:25;;;;;;;2.97;1.80;;;6.80;22.00;;;;;;5093747;28;20274;-44
2024/01/21 11:09:53;;;;;;;1.63;1.52;;;6.70;22.20;;;;;;5092942;28;20522;-50
2024/01/21 11:12:19;;;;;;;1.20;0.80;;;6.70;22.40;;;;;;5094389;28;20230;-49
2024/01/21 11:14:46;;;;;;;1.17;0.60;;;6.70;21.90;;;;;;5094550;28;20366;-43
2024/01/21 11:17:22;;;;;;;1.10;0.85;;;6.70;20.60;;;;;;5094010;28;20411;-48
2024/01/21 11:19:48;;;;;;;1.33;1.23;;;6.70;21.90;;;;;;5094138;28;20207;-48
2024/01/21 11:22:15;;;;;;;4.93;1.40;;;6.70;22.10;;;;;;5093835;28;20219;-46
2024/01/21 11:24:41;;;;;;;4.43;3.53;;;6.70;21.80;;;;;;5093963;28;20168;-44
2024/01/21 11:27:18;;;;;;;1.00;0.80;;;6.70;20.90;;;;;;5093971;28;20184;-43
2024/01/21 11:29:44;;;;;;;1.00;0.90;;;6.80;21.40;;;;;;5093826;28;20557;-48
2024/01/21 11:32:10;;;;;;;1.00;0.80;;;6.80;21.60;;;;;;5093467;28;20335;-44
2024/01/21 11:34:40;;;;;;;1.45;0.98;;;6.80;20.90;;;;;;5093731;28;20176;-46
2024/01/21 11:37:07;;;;;;;0.82;0.50;;;6.90;21.30;;;;;;5093715;28;20542;-47
2024/01/21 11:39:33;;;;;;;1.80;1.27;;;7.00;20.60;;;;;;5093638;28;20228;-43
2024/01/21 11:42:01;;;;;;;0.80;0.30;;;7.10;21.20;;;;;;5093365;28;20596;-44
2024/01/21 11:44:28;;;;;;;3.10;1.83;;;7.10;20.80;;;;;;5093562;28;20255;-50
2024/01/21 11:46:55;;;;;;;1.42;1.10;;;7.20;19.80;;;;;;5093431;28;20662;-44
2024/01/21 11:49:21;;;;;;;3.95;1.42;;;7.20;21.40;;;;;;5093401;28;20645;-46
2024/01/21 11:51:48;;;;;;;4.43;2.75;;;7.10;20.00;;;;;;5093198;28;20220;-49
2024/01/21 11:54:15;;;;;;;1.42;1.33;;;7.10;20.50;;;;;;5093171;28;20165;-42
2024/01/21 11:56:41;;;;;;;0.90;0.57;;;7.10;20.30;;;;;;5093482;28;20169;-43
2024/01/21 11:59:10;;;;;;;2.28;0.77;;;7.20;19.80;;;;;;5093382;28;20585;-46
2024/01/21 12:01:40;;;;;;;2.33;1.42;;;7.20;19.70;;;;;;5093163;28;20203;-47
2024/01/21 12:04:10;;;;;;;2.33;1.70;;;7.20;20.00;;;;;;5091882;28;20168;-44
2024/01/21 12:06:44;;;;;;;7.63;1.75;;;7.20;20.00;;;;;;5071601;28;20177;-49
2024/01/21 12:09:11;;;;;;;1.05;0.50;;;7.20;20.90;;;;;;5072844;28;20735;-43
2024/01/21 12:11:38;;;;;;;1.60;0.82;;;7.10;20.50;;;;;;5072840;28;20201;-45
2024/01/21 12:14:09;;;;;;;13.98;1.65;;;7.20;20.40;;;;;;5072616;28;20173;-47
2024/01/21 12:16:36;;;;;;;0.93;0.45;;;7.20;20.60;;;;;;5072742;28;20260;-45
2024/01/21 12:19:03;;;;;;;1.55;1.40;;;7.20;20.10;;;;;;5072303;28;20513;-46
2024/01/21 12:21:30;;;;;;;4.57;2.15;;;7.30;20.70;;;;;;5072385;28;20220;-49
2024/01/21 12:23:58;;;;;;;1.80;1.70;;;7.30;20.00;;;;;;5072790;28;20189;-43
2024/01/21 12:26:25;;;;;;;1.00;0.80;;;7.30;20.50;;;;;;5072567;28;20177;-49
2024/01/21 12:28:57;;;;;;;1.17;0.77;;;7.30;20.40;;;;;;5072427;28;20169;-47
2024/01/21 12:31:30;;;;;;;1.00;0.77;;;7.30;20.00;;;;;;5072265;28;20196;-45
2024/01/21 12:34:07;;;;;;;2.95;1.75;;;7.30;19.80;;;;;;5072227;28;20181;-47
2024/01/21 12:36:37;;;;;;;4.40;1.48;;;7.10;20.00;;;;;;5085863;28;20172;-42
2024/01/21 12:39:06;;;;;;;1.33;1.20;;;7.10;20.30;;;;;;5092648;28;20179;-45
2024/01/21 12:41:33;;;;;;;3.42;1.83;;;7.10;20.70;;;;;;5092144;28;20215;-49
2024/01/21 12:43:58;;;;;;;1.20;1.00;;;7.10;19.50;;;;;;5092248;28;20176;-43
2024/01/21 12:46:24;;;;;;;3.17;1.87;;;7.20;19.40;;;;;;5092369;28;20221;-46